sensor_id;sensor_type;location;lat;lon;timestamp;temperature;humidity
1415;DHT22;702;49.466;11.086;2023-05-10T00:01:50;15.70;72.30
1415;DHT22;702;49.466;11.086;2023-05-10T00:04:17;15.60;74.00
1415;DHT22;702;49.466;11.086;2023-05-10T00:06:44;15.60;76.60
1415;DHT22;702;49.466;11.086;2023-05-10T00:09:11;15.50;79.10
1415;DHT22;702;49.466;11.086;2023-05-10T00:11:40;15.30;79.80
1415;DHT22;702;49.466;11.086;2023-05-10T00:14:07;15.30;82.00
1415;DHT22;702;49.466;11.086;2023-05-10T00:16:34;15.20;82.50
1415;DHT22;702;49.466;11.086;2023-05-10T00:19:01;15.10;83.80
1415;DHT22;702;49.466;11.086;2023-05-10T00:21:28;15.00;84.60
1415;DHT22;702;49.466;11.086;2023-05-10T00:23:56;14.90;85.40
1415;DHT22;702;49.466;11.086;2023-05-10T00:26:23;14.80;88.00
1415;DHT22;702;49.466;11.086;2023-05-10T00:28:52;14.80;88.60
1415;DHT22;702;49.466;11.086;2023-05-10T00:31:19;14.70;90.60
1415;DHT22;702;49.466;11.086;2023-05-10T00:33:46;14.70;91.50
1415;DHT22;702;49.466;11.086;2023-05-10T00:36:13;14.70;94.10
1415;DHT22;702;49.466;11.086;2023-05-10T00:38:40;14.80;95.90
1415;DHT22;702;49.466;11.086;2023-05-10T00:41:08;14.80;96.60
1415;DHT22;702;49.466;11.086;2023-05-10T00:43:35;14.70;95.90
1415;DHT22;702;49.466;11.086;2023-05-10T00:46:04;14.70;97.30
1415;DHT22;702;49.466;11.086;2023-05-10T00:48:31;14.70;99.20
1415;DHT22;702;49.466;11.086;2023-05-10T00:50:58;14.60;99.90
1415;DHT22;702;49.466;11.086;2023-05-10T00:53:26;14.60;99.90
1415;DHT22;702;49.466;11.086;2023-05-10T00:55:53;14.60;99.90
1415;DHT22;702;49.466;11.086;2023-05-10T00:58:22;14.60;99.90
1415;DHT22;702;49.466;11.086;2023-05-10T01:00:54;14.60;99.90
1415;DHT22;702;49.466;11.086;2023-05-10T01:03:24;14.60;99.90
1415;DHT22;702;49.466;11.086;2023-05-10T01:05:52;14.60;99.90
1415;DHT22;702;49.466;11.086;2023-05-10T01:08:19;14.60;99.90
1415;DHT22;702;49.466;11.086;2023-05-10T01:10:47;14.60;99.90
1415;DHT22;702;49.466;11.086;2023-05-10T01:13:29;14.60;99.90
1415;DHT22;702;49.466;11.086;2023-05-10T01:15:58;14.60;99.90
1415;DHT22;702;49.466;11.086;2023-05-10T01:18:32;14.50;99.90
1415;DHT22;702;49.466;11.086;2023-05-10T01:21:11;14.60;99.90
1415;DHT22;702;49.466;11.086;2023-05-10T01:24:00;14.50;99.90
1415;DHT22;702;49.466;11.086;2023-05-10T01:26:53;14.50;99.90
1415;DHT22;702;49.466;11.086;2023-05-10T01:32:47;14.50;99.90
1415;DHT22;702;49.466;11.086;2023-05-10T01:35:23;14.60;99.90
1415;DHT22;702;49.466;11.086;2023-05-10T01:38:04;14.50;99.90
1415;DHT22;702;49.466;11.086;2023-05-10T01:40:37;14.40;99.90
1415;DHT22;702;49.466;11.086;2023-05-10T01:43:13;14.40;99.90
1415;DHT22;702;49.466;11.086;2023-05-10T01:45:50;14.40;99.90
1415;DHT22;702;49.466;11.086;2023-05-10T01:48:28;14.40;99.90
1415;DHT22;702;49.466;11.086;2023-05-10T01:50:56;14.40;99.90
1415;DHT22;702;49.466;11.086;2023-05-10T01:53:24;14.40;99.90
1415;DHT22;702;49.466;11.086;2023-05-10T01:55:53;14.40;99.90
1415;DHT22;702;49.466;11.086;2023-05-10T01:58:25;14.40;99.90
1415;DHT22;702;49.466;11.086;2023-05-10T02:00:55;14.40;99.90
1415;DHT22;702;49.466;11.086;2023-05-10T02:03:27;14.40;99.90
1415;DHT22;702;49.466;11.086;2023-05-10T02:05:56;14.40;99.90
1415;DHT22;702;49.466;11.086;2023-05-10T02:08:24;14.40;99.90
1415;DHT22;702;49.466;11.086;2023-05-10T02:10:54;14.40;99.90
1415;DHT22;702;49.466;11.086;2023-05-10T02:13:23;14.40;99.90
1415;DHT22;702;49.466;11.086;2023-05-10T02:15:53;14.40;99.90
1415;DHT22;702;49.466;11.086;2023-05-10T02:18:25;14.50;99.90
1415;DHT22;702;49.466;11.086;2023-05-10T02:20:56;14.50;99.90
1415;DHT22;702;49.466;11.086;2023-05-10T02:23:25;14.50;99.90
1415;DHT22;702;49.466;11.086;2023-05-10T02:25:59;14.60;99.90
1415;DHT22;702;49.466;11.086;2023-05-10T02:28:28;14.60;99.90
1415;DHT22;702;49.466;11.086;2023-05-10T02:30:58;14.50;99.90
1415;DHT22;702;49.466;11.086;2023-05-10T02:33:26;14.50;99.90
1415;DHT22;702;49.466;11.086;2023-05-10T02:35:56;14.50;99.90
1415;DHT22;702;49.466;11.086;2023-05-10T02:38:24;14.40;99.90
1415;DHT22;702;49.466;11.086;2023-05-10T02:40:52;14.40;99.90
1415;DHT22;702;49.466;11.086;2023-05-10T02:43:23;14.40;99.90
1415;DHT22;702;49.466;11.086;2023-05-10T02:45:51;14.50;99.90
1415;DHT22;702;49.466;11.086;2023-05-10T02:48:19;14.40;99.90
1415;DHT22;702;49.466;11.086;2023-05-10T02:50:50;14.40;99.90
1415;DHT22;702;49.466;11.086;2023-05-10T02:53:23;14.40;99.90
1415;DHT22;702;49.466;11.086;2023-05-10T02:55:57;14.40;99.90
1415;DHT22;702;49.466;11.086;2023-05-10T02:58:29;14.30;99.90
1415;DHT22;702;49.466;11.086;2023-05-10T03:01:00;14.20;99.90
1415;DHT22;702;49.466;11.086;2023-05-10T03:03:27;14.20;99.90
1415;DHT22;702;49.466;11.086;2023-05-10T03:05:55;14.30;99.90
1415;DHT22;702;49.466;11.086;2023-05-10T03:08:24;14.20;99.90
1415;DHT22;702;49.466;11.086;2023-05-10T03:10:59;14.20;99.90
1415;DHT22;702;49.466;11.086;2023-05-10T03:13:43;14.00;99.90
1415;DHT22;702;49.466;11.086;2023-05-10T03:16:15;13.90;99.90
1415;DHT22;702;49.466;11.086;2023-05-10T03:18:56;13.90;99.90
1415;DHT22;702;49.466;11.086;2023-05-10T03:21:32;13.70;99.90
1415;DHT22;702;49.466;11.086;2023-05-10T03:24:06;13.70;99.90
1415;DHT22;702;49.466;11.086;2023-05-10T03:26:37;13.60;99.90
1415;DHT22;702;49.466;11.086;2023-05-10T03:29:06;13.60;99.90
1415;DHT22;702;49.466;11.086;2023-05-10T03:31:34;13.60;99.90
1415;DHT22;702;49.466;11.086;2023-05-10T03:34:01;13.70;99.90
1415;DHT22;702;49.466;11.086;2023-05-10T03:36:29;13.60;99.90
1415;DHT22;702;49.466;11.086;2023-05-10T03:38:57;13.60;99.90
1415;DHT22;702;49.466;11.086;2023-05-10T03:41:25;13.60;99.90
1415;DHT22;702;49.466;11.086;2023-05-10T03:43:53;13.50;99.90
1415;DHT22;702;49.466;11.086;2023-05-10T03:46:20;13.50;99.90
1415;DHT22;702;49.466;11.086;2023-05-10T03:48:48;13.50;99.90
1415;DHT22;702;49.466;11.086;2023-05-10T03:51:15;13.40;99.90
1415;DHT22;702;49.466;11.086;2023-05-10T03:53:45;13.40;99.90
1415;DHT22;702;49.466;11.086;2023-05-10T03:56:15;13.40;99.90
1415;DHT22;702;49.466;11.086;2023-05-10T03:58:42;13.30;99.90
1415;DHT22;702;49.466;11.086;2023-05-10T04:01:10;13.40;99.90
1415;DHT22;702;49.466;11.086;2023-05-10T04:03:37;13.40;99.90
1415;DHT22;702;49.466;11.086;2023-05-10T04:06:04;13.40;99.90
1415;DHT22;702;49.466;11.086;2023-05-10T04:08:36;13.40;99.90
1415;DHT22;702;49.466;11.086;2023-05-10T04:11:06;13.40;99.90
1415;DHT22;702;49.466;11.086;2023-05-10T04:13:36;13.40;99.90
1415;DHT22;702;49.466;11.086;2023-05-10T04:16:04;13.40;99.90
1415;DHT22;702;49.466;11.086;2023-05-10T04:18:33;13.50;99.90
1415;DHT22;702;49.466;11.086;2023-05-10T04:21:01;13.40;99.90
1415;DHT22;702;49.466;11.086;2023-05-10T04:23:28;13.40;99.90
1415;DHT22;702;49.466;11.086;2023-05-10T04:26:00;13.40;99.90
1415;DHT22;702;49.466;11.086;2023-05-10T04:28:27;13.30;99.90
1415;DHT22;702;49.466;11.086;2023-05-10T04:31:02;13.30;99.90
1415;DHT22;702;49.466;11.086;2023-05-10T04:33:30;13.40;99.90
1415;DHT22;702;49.466;11.086;2023-05-10T04:35:57;13.40;99.90
1415;DHT22;702;49.466;11.086;2023-05-10T04:38:25;13.40;99.90
1415;DHT22;702;49.466;11.086;2023-05-10T04:40:52;13.30;99.90
1415;DHT22;702;49.466;11.086;2023-05-10T04:43:20;13.30;99.90
1415;DHT22;702;49.466;11.086;2023-05-10T04:45:47;13.30;99.90
1415;DHT22;702;49.466;11.086;2023-05-10T04:48:19;13.30;99.90
1415;DHT22;702;49.466;11.086;2023-05-10T04:50:48;13.30;99.90
1415;DHT22;702;49.466;11.086;2023-05-10T04:53:15;13.30;99.90
1415;DHT22;702;49.466;11.086;2023-05-10T04:55:42;13.30;99.90
1415;DHT22;702;49.466;11.086;2023-05-10T04:58:09;13.40;99.90
1415;DHT22;702;49.466;11.086;2023-05-10T05:00:37;13.30;99.90
1415;DHT22;702;49.466;11.086;2023-05-10T05:03:04;13.50;99.90
1415;DHT22;702;49.466;11.086;2023-05-10T05:05:33;13.60;99.90
1415;DHT22;702;49.466;11.086;2023-05-10T05:08:00;13.50;98.90
1415;DHT22;702;49.466;11.086;2023-05-10T05:10:27;13.60;99.90
1415;DHT22;702;49.466;11.086;2023-05-10T05:12:54;13.80;96.80
1415;DHT22;702;49.466;11.086;2023-05-10T05:15:21;13.80;95.30
1415;DHT22;702;49.466;11.086;2023-05-10T05:17:49;13.90;96.50
1415;DHT22;702;49.466;11.086;2023-05-10T05:20:16;14.00;95.70
1415;DHT22;702;49.466;11.086;2023-05-10T05:22:45;14.00;93.60
1415;DHT22;702;49.466;11.086;2023-05-10T05:25:13;14.10;93.90
1415;DHT22;702;49.466;11.086;2023-05-10T05:27:40;14.20;93.00
1415;DHT22;702;49.466;11.086;2023-05-10T05:30:08;14.20;92.90
1415;DHT22;702;49.466;11.086;2023-05-10T05:32:37;14.30;93.30
1415;DHT22;702;49.466;11.086;2023-05-10T05:35:04;14.50;93.30
1415;DHT22;702;49.466;11.086;2023-05-10T05:37:32;14.60;92.40
1415;DHT22;702;49.466;11.086;2023-05-10T05:40:01;14.70;91.70
1415;DHT22;702;49.466;11.086;2023-05-10T05:42:28;14.70;91.40
1415;DHT22;702;49.466;11.086;2023-05-10T05:44:57;14.50;91.20
1415;DHT22;702;49.466;11.086;2023-05-10T05:47:24;14.50;91.60
1415;DHT22;702;49.466;11.086;2023-05-10T05:49:51;14.50;91.60
1415;DHT22;702;49.466;11.086;2023-05-10T05:52:19;14.40;91.50
1415;DHT22;702;49.466;11.086;2023-05-10T05:54:46;14.50;92.40
1415;DHT22;702;49.466;11.086;2023-05-10T05:57:15;14.60;92.10
1415;DHT22;702;49.466;11.086;2023-05-10T05:59:42;14.70;91.60
1415;DHT22;702;49.466;11.086;2023-05-10T06:02:09;14.70;91.50
1415;DHT22;702;49.466;11.086;2023-05-10T06:04:37;14.90;91.30
1415;DHT22;702;49.466;11.086;2023-05-10T06:07:04;15.00;90.50
1415;DHT22;702;49.466;11.086;2023-05-10T06:09:31;15.10;90.50
1415;DHT22;702;49.466;11.086;2023-05-10T06:11:59;15.00;90.20
1415;DHT22;702;49.466;11.086;2023-05-10T06:14:28;15.00;90.30
1415;DHT22;702;49.466;11.086;2023-05-10T06:16:56;15.10;90.10
1415;DHT22;702;49.466;11.086;2023-05-10T06:19:25;15.40;90.50
1415;DHT22;702;49.466;11.086;2023-05-10T06:21:53;15.50;90.40
1415;DHT22;702;49.466;11.086;2023-05-10T06:24:20;15.50;87.70
1415;DHT22;702;49.466;11.086;2023-05-10T06:26:47;15.30;88.80
1415;DHT22;702;49.466;11.086;2023-05-10T06:29:15;15.50;88.40
1415;DHT22;702;49.466;11.086;2023-05-10T06:31:46;15.60;87.70
1415;DHT22;702;49.466;11.086;2023-05-10T06:34:14;15.70;87.70
1415;DHT22;702;49.466;11.086;2023-05-10T06:36:41;15.80;86.50
1415;DHT22;702;49.466;11.086;2023-05-10T06:39:08;15.80;86.80
1415;DHT22;702;49.466;11.086;2023-05-10T06:41:37;15.70;86.70
1415;DHT22;702;49.466;11.086;2023-05-10T06:44:04;15.80;86.00
1415;DHT22;702;49.466;11.086;2023-05-10T06:46:31;15.90;86.20
1415;DHT22;702;49.466;11.086;2023-05-10T06:49:00;15.70;85.50
1415;DHT22;702;49.466;11.086;2023-05-10T06:51:28;15.90;86.50
1415;DHT22;702;49.466;11.086;2023-05-10T06:53:55;15.90;85.10
1415;DHT22;702;49.466;11.086;2023-05-10T06:56:22;15.90;85.50
1415;DHT22;702;49.466;11.086;2023-05-10T06:58:49;15.80;85.10
1415;DHT22;702;49.466;11.086;2023-05-10T07:01:16;16.10;84.90
1415;DHT22;702;49.466;11.086;2023-05-10T07:03:44;15.90;84.50
1415;DHT22;702;49.466;11.086;2023-05-10T07:06:12;15.70;84.60
1415;DHT22;702;49.466;11.086;2023-05-10T07:08:39;15.60;85.30
1415;DHT22;702;49.466;11.086;2023-05-10T07:11:07;15.80;85.10
1415;DHT22;702;49.466;11.086;2023-05-10T07:13:34;15.90;84.30
1415;DHT22;702;49.466;11.086;2023-05-10T07:16:01;16.00;84.00
1415;DHT22;702;49.466;11.086;2023-05-10T07:18:30;16.20;83.40
1415;DHT22;702;49.466;11.086;2023-05-10T07:20:57;16.20;82.30
1415;DHT22;702;49.466;11.086;2023-05-10T07:23:28;16.20;82.70
1415;DHT22;702;49.466;11.086;2023-05-10T07:25:55;16.40;82.70
1415;DHT22;702;49.466;11.086;2023-05-10T07:28:23;16.30;82.10
1415;DHT22;702;49.466;11.086;2023-05-10T07:30:50;16.60;82.60
1415;DHT22;702;49.466;11.086;2023-05-10T07:33:18;16.90;81.10
1415;DHT22;702;49.466;11.086;2023-05-10T07:35:46;17.20;81.40
1415;DHT22;702;49.466;11.086;2023-05-10T07:38:13;17.60;80.90
1415;DHT22;702;49.466;11.086;2023-05-10T07:40:42;17.80;80.00
1415;DHT22;702;49.466;11.086;2023-05-10T07:43:09;17.30;79.10
1415;DHT22;702;49.466;11.086;2023-05-10T07:45:36;16.90;79.60
1415;DHT22;702;49.466;11.086;2023-05-10T07:48:04;16.50;80.40
1415;DHT22;702;49.466;11.086;2023-05-10T07:50:31;16.40;81.10
1415;DHT22;702;49.466;11.086;2023-05-10T07:52:58;16.10;81.10
1415;DHT22;702;49.466;11.086;2023-05-10T07:55:25;16.20;81.50
1415;DHT22;702;49.466;11.086;2023-05-10T07:57:54;16.20;81.10
1415;DHT22;702;49.466;11.086;2023-05-10T08:00:21;16.00;81.10
1415;DHT22;702;49.466;11.086;2023-05-10T08:02:48;15.80;82.00
1415;DHT22;702;49.466;11.086;2023-05-10T08:05:16;16.00;81.20
1415;DHT22;702;49.466;11.086;2023-05-10T08:07:45;16.00;81.30
1415;DHT22;702;49.466;11.086;2023-05-10T08:10:12;15.80;82.10
1415;DHT22;702;49.466;11.086;2023-05-10T08:12:39;16.00;82.10
1415;DHT22;702;49.466;11.086;2023-05-10T08:15:09;16.00;82.10
1415;DHT22;702;49.466;11.086;2023-05-10T08:17:37;16.00;82.00
1415;DHT22;702;49.466;11.086;2023-05-10T08:20:06;16.30;82.10
1415;DHT22;702;49.466;11.086;2023-05-10T08:22:33;16.60;81.40
1415;DHT22;702;49.466;11.086;2023-05-10T08:25:01;16.80;81.00
1415;DHT22;702;49.466;11.086;2023-05-10T08:27:29;16.90;80.10
1415;DHT22;702;49.466;11.086;2023-05-10T08:29:56;16.60;80.30
1415;DHT22;702;49.466;11.086;2023-05-10T08:32:25;16.70;80.30
1415;DHT22;702;49.466;11.086;2023-05-10T08:34:52;16.80;80.50
1415;DHT22;702;49.466;11.086;2023-05-10T08:37:20;17.30;80.10
1415;DHT22;702;49.466;11.086;2023-05-10T08:39:48;17.60;78.50
1415;DHT22;702;49.466;11.086;2023-05-10T08:42:19;17.80;77.10
1415;DHT22;702;49.466;11.086;2023-05-10T08:44:48;18.10;77.50
1415;DHT22;702;49.466;11.086;2023-05-10T08:47:16;18.80;77.00
1415;DHT22;702;49.466;11.086;2023-05-10T08:49:47;19.10;75.00
1415;DHT22;702;49.466;11.086;2023-05-10T08:52:17;18.80;72.70
1415;DHT22;702;49.466;11.086;2023-05-10T08:54:45;18.30;74.30
1415;DHT22;702;49.466;11.086;2023-05-10T08:57:13;18.40;75.60
1415;DHT22;702;49.466;11.086;2023-05-10T08:59:40;18.80;75.10
1415;DHT22;702;49.466;11.086;2023-05-10T09:02:10;19.30;71.80
1415;DHT22;702;49.466;11.086;2023-05-10T09:04:39;19.20;71.50
1415;DHT22;702;49.466;11.086;2023-05-10T09:07:07;18.90;71.80
1415;DHT22;702;49.466;11.086;2023-05-10T09:09:35;18.70;72.30
1415;DHT22;702;49.466;11.086;2023-05-10T09:12:10;18.30;74.90
1415;DHT22;702;49.466;11.086;2023-05-10T09:14:39;17.70;78.40
1415;DHT22;702;49.466;11.086;2023-05-10T09:17:06;16.80;81.80
1415;DHT22;702;49.466;11.086;2023-05-10T09:19:34;15.90;84.00
1415;DHT22;702;49.466;11.086;2023-05-10T09:22:01;15.30;85.70
1415;DHT22;702;49.466;11.086;2023-05-10T09:24:30;15.00;88.40
1415;DHT22;702;49.466;11.086;2023-05-10T09:26:57;15.00;90.40
1415;DHT22;702;49.466;11.086;2023-05-10T09:29:25;15.10;89.10
1415;DHT22;702;49.466;11.086;2023-05-10T09:31:55;15.20;89.90
1415;DHT22;702;49.466;11.086;2023-05-10T09:34:32;15.10;90.50
1415;DHT22;702;49.466;11.086;2023-05-10T09:37:02;15.30;90.10
1415;DHT22;702;49.466;11.086;2023-05-10T09:39:33;15.50;89.00
1415;DHT22;702;49.466;11.086;2023-05-10T09:42:03;15.70;86.90
1415;DHT22;702;49.466;11.086;2023-05-10T09:44:31;16.00;85.40
1415;DHT22;702;49.466;11.086;2023-05-10T09:46:59;16.20;85.10
1415;DHT22;702;49.466;11.086;2023-05-10T09:49:26;16.50;84.00
1415;DHT22;702;49.466;11.086;2023-05-10T09:52:01;16.80;83.50
1415;DHT22;702;49.466;11.086;2023-05-10T09:54:29;17.10;82.20
1415;DHT22;702;49.466;11.086;2023-05-10T09:56:58;17.60;82.70
1415;DHT22;702;49.466;11.086;2023-05-10T09:59:26;17.90;80.50
1415;DHT22;702;49.466;11.086;2023-05-10T10:01:56;18.30;79.30
1415;DHT22;702;49.466;11.086;2023-05-10T10:04:24;18.30;77.50
1415;DHT22;702;49.466;11.086;2023-05-10T10:07:00;18.40;78.30
1415;DHT22;702;49.466;11.086;2023-05-10T10:09:28;18.40;77.50
1415;DHT22;702;49.466;11.086;2023-05-10T10:11:55;18.30;77.40
1415;DHT22;702;49.466;11.086;2023-05-10T10:14:24;18.10;76.80
1415;DHT22;702;49.466;11.086;2023-05-10T10:16:52;18.10;77.60
1415;DHT22;702;49.466;11.086;2023-05-10T10:19:20;18.10;75.50
1415;DHT22;702;49.466;11.086;2023-05-10T10:21:48;18.10;74.80
1415;DHT22;702;49.466;11.086;2023-05-10T10:24:16;18.40;74.00
1415;DHT22;702;49.466;11.086;2023-05-10T10:26:44;18.80;74.40
1415;DHT22;702;49.466;11.086;2023-05-10T10:29:25;19.20;72.10
1415;DHT22;702;49.466;11.086;2023-05-10T10:32:03;19.30;70.40
1415;DHT22;702;49.466;11.086;2023-05-10T10:34:38;19.30;69.70
1415;DHT22;702;49.466;11.086;2023-05-10T10:37:06;19.40;69.00
1415;DHT22;702;49.466;11.086;2023-05-10T10:39:33;19.50;67.80
1415;DHT22;702;49.466;11.086;2023-05-10T10:42:03;19.20;66.90
1415;DHT22;702;49.466;11.086;2023-05-10T10:44:36;19.10;68.30
1415;DHT22;702;49.466;11.086;2023-05-10T10:47:23;19.10;66.90
1415;DHT22;702;49.466;11.086;2023-05-10T10:50:04;18.80;67.60
1415;DHT22;702;49.466;11.086;2023-05-10T10:52:33;18.40;67.90
1415;DHT22;702;49.466;11.086;2023-05-10T10:55:04;17.90;68.90
1415;DHT22;702;49.466;11.086;2023-05-10T10:57:43;17.90;70.70
1415;DHT22;702;49.466;11.086;2023-05-10T11:00:27;18.00;70.60
1415;DHT22;702;49.466;11.086;2023-05-10T11:02:58;17.90;70.90
1415;DHT22;702;49.466;11.086;2023-05-10T11:05:44;17.90;71.10
1415;DHT22;702;49.466;11.086;2023-05-10T11:08:14;18.00;70.50
1415;DHT22;702;49.466;11.086;2023-05-10T11:10:51;18.00;71.20
1415;DHT22;702;49.466;11.086;2023-05-10T11:13:30;18.10;70.30
1415;DHT22;702;49.466;11.086;2023-05-10T11:16:10;18.10;70.40
1415;DHT22;702;49.466;11.086;2023-05-10T11:18:58;17.90;70.40
1415;DHT22;702;49.466;11.086;2023-05-10T11:21:28;17.90;69.70
1415;DHT22;702;49.466;11.086;2023-05-10T11:23:56;17.80;71.00
1415;DHT22;702;49.466;11.086;2023-05-10T11:26:24;18.00;71.30
1415;DHT22;702;49.466;11.086;2023-05-10T11:28:53;18.20;70.80
1415;DHT22;702;49.466;11.086;2023-05-10T11:31:26;18.20;71.00
1415;DHT22;702;49.466;11.086;2023-05-10T11:33:56;18.20;70.70
1415;DHT22;702;49.466;11.086;2023-05-10T11:36:26;18.00;70.60
1415;DHT22;702;49.466;11.086;2023-05-10T11:38:54;18.00;71.20
1415;DHT22;702;49.466;11.086;2023-05-10T11:41:22;17.90;71.20
1415;DHT22;702;49.466;11.086;2023-05-10T11:43:51;17.80;71.50
1415;DHT22;702;49.466;11.086;2023-05-10T11:46:20;17.80;71.80
1415;DHT22;702;49.466;11.086;2023-05-10T11:48:51;17.60;70.00
1415;DHT22;702;49.466;11.086;2023-05-10T11:51:20;17.50;70.10
1415;DHT22;702;49.466;11.086;2023-05-10T11:53:49;17.50;70.50
1415;DHT22;702;49.466;11.086;2023-05-10T11:56:16;17.60;70.30
1415;DHT22;702;49.466;11.086;2023-05-10T11:58:44;17.80;70.10
1415;DHT22;702;49.466;11.086;2023-05-10T12:01:12;18.30;69.60
1415;DHT22;702;49.466;11.086;2023-05-10T12:03:40;18.50;68.40
1415;DHT22;702;49.466;11.086;2023-05-10T12:06:09;18.70;68.30
1415;DHT22;702;49.466;11.086;2023-05-10T12:08:36;19.10;68.00
1415;DHT22;702;49.466;11.086;2023-05-10T12:11:05;19.10;67.40
1415;DHT22;702;49.466;11.086;2023-05-10T12:13:37;19.40;67.30
1415;DHT22;702;49.466;11.086;2023-05-10T12:16:16;19.70;67.30
1415;DHT22;702;49.466;11.086;2023-05-10T12:18:47;19.90;67.30
1415;DHT22;702;49.466;11.086;2023-05-10T12:21:17;19.70;67.40
1415;DHT22;702;49.466;11.086;2023-05-10T12:23:45;19.10;66.10
1415;DHT22;702;49.466;11.086;2023-05-10T12:26:14;18.80;66.60
1415;DHT22;702;49.466;11.086;2023-05-10T12:28:41;18.70;66.50
1415;DHT22;702;49.466;11.086;2023-05-10T12:31:08;18.90;66.40
1415;DHT22;702;49.466;11.086;2023-05-10T12:33:37;19.00;66.60
1415;DHT22;702;49.466;11.086;2023-05-10T12:36:07;19.00;66.90
1415;DHT22;702;49.466;11.086;2023-05-10T12:38:38;19.00;68.10
1415;DHT22;702;49.466;11.086;2023-05-10T12:41:09;19.20;68.30
1415;DHT22;702;49.466;11.086;2023-05-10T12:43:37;19.40;67.80
1415;DHT22;702;49.466;11.086;2023-05-10T12:46:06;19.60;67.80
1415;DHT22;702;49.466;11.086;2023-05-10T12:48:34;19.70;67.30
1415;DHT22;702;49.466;11.086;2023-05-10T12:51:02;19.80;66.00
1415;DHT22;702;49.466;11.086;2023-05-10T12:53:31;19.60;65.90
1415;DHT22;702;49.466;11.086;2023-05-10T12:56:00;19.90;64.90
1415;DHT22;702;49.466;11.086;2023-05-10T12:58:27;20.00;64.30
1415;DHT22;702;49.466;11.086;2023-05-10T13:00:54;20.20;64.00
1415;DHT22;702;49.466;11.086;2023-05-10T13:03:23;20.10;63.80
1415;DHT22;702;49.466;11.086;2023-05-10T13:05:51;20.40;62.30
1415;DHT22;702;49.466;11.086;2023-05-10T13:08:18;20.00;62.90
1415;DHT22;702;49.466;11.086;2023-05-10T13:10:46;19.60;63.80
1415;DHT22;702;49.466;11.086;2023-05-10T13:13:15;19.40;64.60
1415;DHT22;702;49.466;11.086;2023-05-10T13:15:44;19.00;65.30
1415;DHT22;702;49.466;11.086;2023-05-10T13:18:11;19.00;65.60
1415;DHT22;702;49.466;11.086;2023-05-10T13:20:38;18.80;66.60
1415;DHT22;702;49.466;11.086;2023-05-10T13:23:05;18.80;67.30
1415;DHT22;702;49.466;11.086;2023-05-10T13:25:33;18.90;66.40
1415;DHT22;702;49.466;11.086;2023-05-10T13:28:01;18.40;67.60
1415;DHT22;702;49.466;11.086;2023-05-10T13:30:29;17.80;71.80
1415;DHT22;702;49.466;11.086;2023-05-10T13:32:56;17.20;72.40
1415;DHT22;702;49.466;11.086;2023-05-10T13:35:24;16.60;77.40
1415;DHT22;702;49.466;11.086;2023-05-10T13:37:51;16.30;80.60
1415;DHT22;702;49.466;11.086;2023-05-10T13:40:22;15.90;82.20
1415;DHT22;702;49.466;11.086;2023-05-10T13:42:50;15.50;85.50
1415;DHT22;702;49.466;11.086;2023-05-10T13:45:19;15.30;90.40
1415;DHT22;702;49.466;11.086;2023-05-10T13:47:47;15.20;90.50
1415;DHT22;702;49.466;11.086;2023-05-10T13:50:16;15.30;91.70
1415;DHT22;702;49.466;11.086;2023-05-10T13:52:44;15.40;91.80
1415;DHT22;702;49.466;11.086;2023-05-10T13:55:12;15.40;92.90
1415;DHT22;702;49.466;11.086;2023-05-10T13:57:39;15.60;91.10
1415;DHT22;702;49.466;11.086;2023-05-10T14:00:07;15.70;88.30
1415;DHT22;702;49.466;11.086;2023-05-10T14:02:35;15.90;90.40
1415;DHT22;702;49.466;11.086;2023-05-10T14:05:05;16.30;88.00
1415;DHT22;702;49.466;11.086;2023-05-10T14:07:32;16.60;86.90
1415;DHT22;702;49.466;11.086;2023-05-10T14:09:59;17.00;87.20
1415;DHT22;702;49.466;11.086;2023-05-10T14:12:27;17.30;86.60
1415;DHT22;702;49.466;11.086;2023-05-10T14:14:54;17.80;85.00
1415;DHT22;702;49.466;11.086;2023-05-10T14:17:21;18.10;84.00
1415;DHT22;702;49.466;11.086;2023-05-10T14:19:49;18.20;83.30
1415;DHT22;702;49.466;11.086;2023-05-10T14:22:17;18.20;81.80
1415;DHT22;702;49.466;11.086;2023-05-10T14:24:45;18.10;81.90
1415;DHT22;702;49.466;11.086;2023-05-10T14:27:12;18.20;84.50
1415;DHT22;702;49.466;11.086;2023-05-10T14:29:40;18.10;82.50
1415;DHT22;702;49.466;11.086;2023-05-10T14:32:07;17.70;82.30
1415;DHT22;702;49.466;11.086;2023-05-10T14:34:34;17.40;81.00
1415;DHT22;702;49.466;11.086;2023-05-10T14:37:02;17.30;81.90
1415;DHT22;702;49.466;11.086;2023-05-10T14:39:31;17.20;79.90
1415;DHT22;702;49.466;11.086;2023-05-10T14:41:58;16.90;81.00
1415;DHT22;702;49.466;11.086;2023-05-10T14:44:26;16.70;82.30
1415;DHT22;702;49.466;11.086;2023-05-10T14:46:53;16.60;83.20
1415;DHT22;702;49.466;11.086;2023-05-10T14:49:21;16.80;83.10
1415;DHT22;702;49.466;11.086;2023-05-10T14:51:52;17.00;83.20
1415;DHT22;702;49.466;11.086;2023-05-10T14:54:19;17.20;82.60
1415;DHT22;702;49.466;11.086;2023-05-10T14:56:48;17.40;81.90
1415;DHT22;702;49.466;11.086;2023-05-10T14:59:16;17.80;82.40
1415;DHT22;702;49.466;11.086;2023-05-10T15:01:43;18.20;81.60
1415;DHT22;702;49.466;11.086;2023-05-10T15:04:10;18.40;79.50
1415;DHT22;702;49.466;11.086;2023-05-10T15:06:39;18.40;80.80
1415;DHT22;702;49.466;11.086;2023-05-10T15:09:06;18.40;77.50
1415;DHT22;702;49.466;11.086;2023-05-10T15:11:35;18.30;78.30
1415;DHT22;702;49.466;11.086;2023-05-10T15:14:03;18.20;78.80
1415;DHT22;702;49.466;11.086;2023-05-10T15:16:31;18.00;80.10
1415;DHT22;702;49.466;11.086;2023-05-10T15:18:58;17.50;78.10
1415;DHT22;702;49.466;11.086;2023-05-10T15:21:25;17.00;79.00
1415;DHT22;702;49.466;11.086;2023-05-10T15:23:53;16.60;78.60
1415;DHT22;702;49.466;11.086;2023-05-10T15:26:20;16.40;78.20
1415;DHT22;702;49.466;11.086;2023-05-10T15:28:47;16.30;77.40
1415;DHT22;702;49.466;11.086;2023-05-10T15:31:16;16.20;76.80
1415;DHT22;702;49.466;11.086;2023-05-10T15:33:43;16.30;76.70
1415;DHT22;702;49.466;11.086;2023-05-10T15:36:11;16.40;75.60
1415;DHT22;702;49.466;11.086;2023-05-10T15:38:38;16.50;75.20
1415;DHT22;702;49.466;11.086;2023-05-10T15:41:06;16.40;74.50
1415;DHT22;702;49.466;11.086;2023-05-10T15:43:33;16.50;74.60
1415;DHT22;702;49.466;11.086;2023-05-10T15:46:00;16.40;74.00
1415;DHT22;702;49.466;11.086;2023-05-10T15:48:29;16.40;73.80
1415;DHT22;702;49.466;11.086;2023-05-10T15:50:56;16.30;74.30
1415;DHT22;702;49.466;11.086;2023-05-10T15:53:23;16.30;73.40
1415;DHT22;702;49.466;11.086;2023-05-10T15:55:51;16.30;73.90
1415;DHT22;702;49.466;11.086;2023-05-10T15:58:19;16.20;73.00
1415;DHT22;702;49.466;11.086;2023-05-10T16:00:46;16.30;73.60
1415;DHT22;702;49.466;11.086;2023-05-10T16:03:13;16.50;73.50
1415;DHT22;702;49.466;11.086;2023-05-10T16:05:42;16.50;73.00
1415;DHT22;702;49.466;11.086;2023-05-10T16:08:09;16.50;73.30
1415;DHT22;702;49.466;11.086;2023-05-10T16:10:37;16.60;73.70
1415;DHT22;702;49.466;11.086;2023-05-10T16:13:04;16.60;74.10
1415;DHT22;702;49.466;11.086;2023-05-10T16:15:31;16.50;74.50
1415;DHT22;702;49.466;11.086;2023-05-10T16:17:58;16.60;74.70